createdAt,value
2023-04-01T00:00:13.642Z,94.5
2023-04-01T00:05:19.584Z,95.5
2023-04-01T00:10:25.684Z,96.5
2023-04-01T00:15:32.189Z,97
2023-04-01T00:20:37.966Z,98.5
2023-04-01T00:25:44.138Z,98.5
2023-04-01T00:30:50.287Z,99
2023-04-01T00:35:56.425Z,97.5
2023-04-01T00:41:02.532Z,98
2023-04-01T00:46:08.696Z,98
2023-04-01T00:51:14.806Z,94.5
2023-04-01T00:56:20.980Z,94.5
2023-04-01T01:01:27.137Z,94
2023-04-01T01:06:33.268Z,92
2023-04-01T01:11:43.346Z,92.5
2023-04-01T01:16:45.623Z,92.5
2023-04-01T01:21:51.669Z,93.5
2023-04-01T01:26:57.826Z,94
2023-04-01T01:32:03.951Z,83
2023-04-01T01:37:10.078Z,86
2023-04-01T01:42:16.233Z,93.5
2023-04-01T01:47:22.348Z,91.5
2023-04-01T01:52:28.525Z,93.5
2023-04-01T01:57:34.779Z,96.5
2023-04-01T02:02:40.837Z,97
2023-04-01T02:07:46.920Z,98
2023-04-01T02:12:53.057Z,97
2023-04-01T02:17:59.211Z,97.5
2023-04-01T02:23:05.335Z,97.5
2023-04-01T02:28:11.610Z,99.5
2023-04-01T02:33:17.616Z,100
2023-04-01T02:38:23.885Z,100
2023-04-01T02:43:29.913Z,100
2023-04-01T02:48:36.069Z,100
2023-04-01T02:53:42.360Z,98
2023-04-01T02:58:48.349Z,98
2023-04-01T03:03:54.532Z,98.5
2023-04-01T03:09:00.578Z,99
2023-04-01T03:14:06.733Z,99
2023-04-01T03:19:12.880Z,99.5
2023-04-01T03:24:19.025Z,98.5
2023-04-01T03:29:25.174Z,98
2023-04-01T03:34:31.300Z,95
2023-04-01T03:39:37.449Z,94.5
2023-04-01T03:44:43.739Z,92.5
2023-04-01T03:49:49.771Z,93
2023-04-01T03:54:55.857Z,90.5
2023-04-01T04:00:02.067Z,92
2023-04-01T04:05:08.171Z,92.5
2023-04-01T04:10:14.689Z,93
2023-04-01T04:15:20.460Z,95
2023-04-01T04:20:26.557Z,98
2023-04-01T04:25:33.004Z,98.5
2023-04-01T04:30:38.878Z,94
2023-04-01T04:35:45.115Z,93.5
2023-04-01T04:40:51.133Z,91.5
2023-04-01T04:45:57.261Z,90.5
2023-04-01T04:51:03.419Z,90
2023-04-01T04:56:09.594Z,91.5
2023-04-01T05:01:15.710Z,94.5
2023-04-01T05:06:23.539Z,95.5
2023-04-01T05:11:27.996Z,93.5
2023-04-01T05:16:34.129Z,90
2023-04-01T05:21:40.233Z,90
2023-04-01T05:26:46.637Z,93
2023-04-01T05:31:52.499Z,94
2023-04-01T05:36:58.665Z,95
2023-04-01T05:42:04.805Z,96.5
2023-04-01T05:47:10.943Z,92.5
2023-04-01T05:52:17.317Z,90.5
2023-04-01T05:57:23.220Z,89.5
2023-04-01T06:02:29.473Z,91.5
2023-04-01T06:07:35.635Z,90.5
2023-04-01T06:12:41.635Z,91.5
2023-04-01T06:17:47.791Z,93.5
2023-04-01T06:22:54.301Z,91.5
2023-04-01T06:33:06.653Z,91
2023-04-01T06:38:12.642Z,90.5
2023-04-01T06:43:18.486Z,89.5
2023-04-01T06:48:24.627Z,90
2023-04-01T06:53:30.766Z,88.5
2023-04-01T06:58:37.037Z,89.5
2023-04-01T07:03:43.036Z,90
2023-04-01T07:08:49.348Z,92
2023-04-01T07:13:55.449Z,91
2023-04-01T07:19:02.506Z,91.5
2023-04-01T07:24:07.626Z,89.5
2023-04-01T07:29:13.805Z,90
2023-04-01T07:34:19.890Z,91.5
2023-04-01T07:39:26.030Z,89
2023-04-01T07:44:32.143Z,86
2023-04-01T07:49:38.330Z,86.5
2023-04-01T07:54:44.471Z,93
2023-04-01T08:04:56.863Z,87
2023-04-01T08:10:02.924Z,83
2023-04-01T08:15:09.032Z,85
2023-04-01T08:20:15.191Z,80.5
2023-04-01T08:25:21.292Z,81.5
2023-04-01T08:30:27.454Z,79.5
2023-04-01T08:35:34.942Z,77
2023-04-01T08:40:39.741Z,78
2023-04-01T08:45:45.904Z,77
2023-04-01T08:50:52.021Z,76
2023-04-01T08:55:58.175Z,77.5
2023-04-01T09:01:04.286Z,75
2023-04-01T09:06:10.462Z,76
2023-04-01T09:11:18.430Z,79
2023-04-01T09:16:22.839Z,79
2023-04-01T09:21:28.860Z,76.5
2023-04-01T09:26:35.033Z,73.5
2023-04-01T09:31:41.556Z,76.5
2023-04-01T09:36:47.286Z,75.5
2023-04-01T09:41:53.420Z,74.5
2023-04-01T09:46:59.580Z,65
2023-04-01T09:52:05.717Z,69
2023-04-01T09:57:11.943Z,71.5
2023-04-01T10:02:18.014Z,64
2023-04-01T10:07:24.150Z,72
2023-04-01T10:12:30.255Z,71.5
2023-04-01T10:17:36.442Z,76.5
2023-04-01T10:22:42.593Z,79.5
2023-04-01T10:27:48.725Z,80
2023-04-01T10:32:55.027Z,79.5
2023-04-01T10:38:00.991Z,77.5
2023-04-01T10:43:07.289Z,84.5
2023-04-01T10:48:13.244Z,84
2023-04-01T10:53:19.380Z,78
2023-04-01T10:58:25.525Z,80
2023-04-01T11:03:31.751Z,82
2023-04-01T11:08:37.808Z,79
2023-04-01T11:13:43.959Z,75
2023-04-01T11:18:50.064Z,77.5
2023-04-01T11:24:04.803Z,80.5
2023-04-01T11:29:02.365Z,84.5
2023-04-01T11:34:08.467Z,85.5
2023-04-01T11:39:14.772Z,84
2023-04-01T11:44:20.835Z,83
2023-04-01T11:49:26.908Z,80.5
2023-04-01T11:54:33.169Z,79
2023-04-01T11:59:39.188Z,79
2023-04-01T12:04:45.340Z,79.5
2023-04-01T12:09:51.486Z,78
2023-04-01T12:14:57.626Z,73
2023-04-01T12:20:03.773Z,63.5
2023-04-01T12:25:10.046Z,60.5
2023-04-01T12:30:16.058Z,59.5
2023-04-01T12:35:22.251Z,62
2023-04-01T12:40:28.364Z,73
2023-04-01T12:45:34.835Z,73
2023-04-01T12:50:40.616Z,80
2023-04-01T12:55:46.782Z,79.5
2023-04-01T13:00:53.032Z,78
2023-04-01T13:05:59.035Z,77.5
2023-04-01T13:11:05.231Z,79
2023-04-01T13:16:11.344Z,78
2023-04-01T13:21:17.554Z,77.5
2023-04-01T13:26:23.588Z,75.5
2023-04-01T13:31:29.784Z,81
2023-04-01T13:36:35.897Z,81
2023-04-01T13:41:42.041Z,82
2023-04-01T13:46:48.217Z,76.5
2023-04-01T13:51:54.304Z,74.5
2023-04-01T13:57:00.427Z,70
2023-04-01T14:02:06.623Z,72.5
2023-04-01T14:07:12.816Z,71.5
2023-04-01T14:12:18.907Z,74.5
2023-04-01T14:17:25.054Z,71
2023-04-01T14:22:31.167Z,74.5
2023-04-01T14:27:37.327Z,77.5
2023-04-01T14:32:43.456Z,80
2023-04-01T14:37:49.604Z,78.5
2023-04-01T14:42:55.766Z,68.5
2023-04-01T14:48:01.883Z,73
2023-04-01T14:53:08.005Z,80
2023-04-01T14:58:14.147Z,81
2023-04-01T15:03:20.599Z,79
2023-04-01T15:08:26.409Z,81
2023-04-01T15:13:32.553Z,83
2023-04-01T15:18:38.713Z,82
2023-04-01T15:23:44.838Z,86.5
2023-04-01T15:28:50.968Z,86
2023-04-01T15:33:57.346Z,87
2023-04-01T15:39:03.525Z,87.5
2023-04-01T15:44:09.631Z,85
2023-04-01T15:49:15.534Z,82.5
2023-04-01T15:54:21.711Z,82.5
2023-04-01T15:59:27.813Z,84
2023-04-01T16:04:33.930Z,83.5
2023-04-01T16:09:40.088Z,85.5
2023-04-01T16:14:56.532Z,78
2023-04-01T16:20:02.903Z,87
2023-04-01T16:25:08.803Z,87
2023-04-01T16:30:14.925Z,86.5
2023-04-01T16:35:21.033Z,82.5
2023-04-01T16:40:27.369Z,85.5
2023-04-01T16:45:33.336Z,83
2023-04-01T16:50:39.514Z,87
2023-04-01T16:55:45.633Z,86.5
2023-04-01T17:00:52.836Z,85.5
2023-04-01T17:05:57.911Z,87.5
2023-04-01T17:11:04.107Z,90
2023-04-01T17:16:10.213Z,91
2023-04-01T17:21:17.336Z,89
2023-04-01T17:26:22.604Z,87
2023-04-01T17:31:28.696Z,86.5
2023-04-01T17:36:34.818Z,87.5
2023-04-01T17:41:40.888Z,88
2023-04-01T17:46:47.197Z,88
2023-04-01T17:51:53.157Z,89.5
2023-04-01T17:56:59.320Z,90.5
2023-04-01T18:02:05.472Z,90
2023-04-01T18:07:11.575Z,89.5
2023-04-01T18:12:17.724Z,88.5
2023-04-01T18:17:23.907Z,89.5
2023-04-01T18:22:30.033Z,90
2023-04-01T18:27:36.153Z,90
2023-04-01T18:32:42.290Z,89.5
2023-04-01T18:37:48.429Z,88
2023-04-01T18:42:54.598Z,90
2023-04-01T18:48:00.724Z,91.5
2023-04-01T18:53:07.091Z,90
2023-04-01T18:58:12.986Z,91
2023-04-01T19:03:19.201Z,90.5
2023-04-01T19:08:25.272Z,91
2023-04-01T19:13:31.410Z,90
2023-04-01T19:18:37.531Z,91.5
2023-04-01T19:23:43.789Z,91.5
2023-04-01T19:28:49.826Z,91
2023-04-01T19:39:02.152Z,87
2023-04-01T19:44:08.265Z,88.5
2023-04-01T19:49:14.399Z,90.5
2023-04-01T19:54:20.527Z,91.5
2023-04-01T19:59:26.662Z,91
2023-04-01T20:04:32.822Z,91.5
2023-04-01T20:09:39.044Z,91
2023-04-01T20:14:45.335Z,90.5
2023-04-01T20:19:51.248Z,90
2023-04-01T20:24:57.379Z,91
2023-04-01T20:30:03.526Z,91
2023-04-01T20:35:09.679Z,90.5
2023-04-01T20:40:15.783Z,90.5
2023-04-01T20:45:21.945Z,90
2023-04-01T20:50:28.109Z,90
2023-04-01T20:55:34.431Z,90.5
2023-04-01T21:00:40.340Z,92
2023-04-01T21:05:46.528Z,91
2023-04-01T21:10:52.608Z,91
2023-04-01T21:15:59.028Z,92
2023-04-01T21:21:04.948Z,91
2023-04-01T21:26:11.069Z,92
2023-04-01T21:31:17.248Z,92.5
2023-04-01T21:36:23.387Z,92.5
2023-04-01T21:41:29.468Z,92
2023-04-01T21:46:35.752Z,91
2023-04-01T21:51:41.754Z,91
2023-04-01T21:56:47.945Z,90
2023-04-01T22:01:54.034Z,91.5
2023-04-01T22:07:00.181Z,91
2023-04-01T22:12:06.314Z,91
2023-04-01T22:22:18.626Z,91.5
2023-04-01T22:27:24.728Z,92
2023-04-01T22:32:30.937Z,88
2023-04-01T22:37:37.037Z,90.5
2023-04-01T22:42:43.172Z,90
2023-04-01T22:47:49.384Z,92.5
2023-04-01T22:52:55.504Z,91
2023-04-01T22:58:01.745Z,91.5
2023-04-01T23:03:07.905Z,91
2023-04-01T23:08:13.840Z,91
2023-04-01T23:13:19.998Z,91
2023-04-01T23:18:26.140Z,92
2023-04-01T23:23:32.306Z,92.5
2023-04-01T23:28:38.461Z,91
2023-04-01T23:33:44.537Z,91
2023-04-01T23:38:50.777Z,91.5
2023-04-01T23:43:56.807Z,91
2023-04-01T23:49:02.995Z,92.5
2023-04-01T23:54:09.129Z,92
2023-04-01T23:59:15.407Z,93
